Warner Robins, Georgia
Current Conditions -  °F | °C
As of 7:58 AM on Saturday 25 Oct 2014 (Local Time) from KWRB Reporting Station
Clear Clear  
Wind Chill: 38°   Ceiling: Unl
Heat Index: 42°   Visibility: 10mi
Dew Point: 40°   Wind: 6mph
Humidity: 95%   Direction: 330°NNW
Pressure: 30.03"   Gusts: NA
Location:  32.62°N, 83.61°W
Report Text: KWRB 251158Z AUTO 33005KT 10SM CLR 06/05 A3003 RMK AO2 SLP172 60001 70001 T00550047 10096 20055 52013
Loading
Personal Weather Stations






























Interactive Weather Map
Tropical Storm Tracking
New forecast layout! Learn more

10-Day Weather Forecast

Advertisements
Track Severe Weather on mobile